createdAt,value
2022-08-09T00:01:10.635Z,8.40
2022-08-09T00:04:00.406Z,8.00
2022-08-09T00:06:28.244Z,7.63
2022-08-09T00:08:58.892Z,8.30
2022-08-09T00:11:56.866Z,8.60
2022-08-09T00:14:21.781Z,7.50
2022-08-09T00:16:54.892Z,7.00
2022-08-09T00:19:21.558Z,7.70
2022-08-09T00:21:56.108Z,7.80
2022-08-09T00:24:24.253Z,7.50
2022-08-09T00:26:51.608Z,7.90
2022-08-09T00:29:39.892Z,7.50
2022-08-09T00:32:06.295Z,7.87
2022-08-09T00:34:33.635Z,6.90
2022-08-09T00:37:00.940Z,7.90
2022-08-09T00:40:12.804Z,7.30
2022-08-09T00:44:13.224Z,6.57
2022-08-09T00:45:03.634Z,7.17
2022-08-09T00:47:42.027Z,7.40
2022-08-09T00:50:14.454Z,6.77
2022-08-09T00:52:41.703Z,6.67
2022-08-09T00:55:09.104Z,8.23
2022-08-09T00:57:43.506Z,8.00
2022-08-09T01:00:21.609Z,7.37
2022-08-09T01:02:51.630Z,7.30
2022-08-09T01:05:51.604Z,7.77
2022-08-09T01:08:40.466Z,7.70
2022-08-09T01:11:23.935Z,7.73
2022-08-09T01:14:07.743Z,7.90
2022-08-09T01:16:47.260Z,9.10
2022-08-09T01:19:42.431Z,8.10
2022-08-09T01:22:21.871Z,7.80
2022-08-09T01:25:00.900Z,8.20
2022-08-09T01:27:29.875Z,8.70
2022-08-09T01:30:02.639Z,7.63
2022-08-09T01:32:43.606Z,8.20
2022-08-09T01:35:38.810Z,7.90
2022-08-09T01:38:14.772Z,7.83
2022-08-09T01:40:53.083Z,8.40
2022-08-09T01:43:31.996Z,7.67
2022-08-09T01:46:18.366Z,8.40
2022-08-09T01:48:52.418Z,8.10
2022-08-09T01:51:22.696Z,9.20
2022-08-09T01:53:50.197Z,9.07
2022-08-09T01:56:20.462Z,8.83
2022-08-09T01:58:48.983Z,8.10
2022-08-09T02:01:18.394Z,8.40
2022-08-09T02:03:46.103Z,8.27
2022-08-09T02:06:14.099Z,8.40
2022-08-09T02:08:58.636Z,7.43
2022-08-09T02:11:42.687Z,7.90
2022-08-09T02:14:10.746Z,8.73
2022-08-09T02:16:59.182Z,8.40
2022-08-09T02:19:38.476Z,8.37
2022-08-09T02:22:10.768Z,8.40
2022-08-09T02:24:37.760Z,7.93
2022-08-09T02:27:07.432Z,7.90
2022-08-09T02:29:38.041Z,7.90
2022-08-09T02:32:05.276Z,8.50
2022-08-09T02:34:40.685Z,8.30
2022-08-09T02:37:19.286Z,8.50
2022-08-09T02:39:50.009Z,9.00
2022-08-09T02:42:31.938Z,9.27
2022-08-09T02:45:13.510Z,8.57
2022-08-09T02:47:57.594Z,9.47
2022-08-09T02:50:35.266Z,8.70
2022-08-09T02:53:04.448Z,9.07
2022-08-09T02:55:46.459Z,8.67
2022-08-09T02:58:35.808Z,8.97
2022-08-09T03:01:04.460Z,8.80
2022-08-09T03:04:12.744Z,8.40
2022-08-09T03:06:19.813Z,9.87
2022-08-09T03:08:48.313Z,9.23
2022-08-09T03:11:30.163Z,8.53
2022-08-09T03:14:04.416Z,8.20
2022-08-09T03:16:31.555Z,8.80
2022-08-09T03:19:01.836Z,8.40
2022-08-09T03:21:29.262Z,9.10
2022-08-09T03:24:06.354Z,8.43
2022-08-09T03:26:36.658Z,8.93
2022-08-09T03:29:13.440Z,8.83
2022-08-09T03:31:59.835Z,8.77
2022-08-09T03:34:27.641Z,9.40
2022-08-09T03:36:58.258Z,9.07
2022-08-09T03:39:37.540Z,8.37
2022-08-09T03:42:06.760Z,9.00
2022-08-09T03:44:33.613Z,8.20
2022-08-09T03:47:00.263Z,8.67
2022-08-09T03:49:27.742Z,9.43
2022-08-09T03:52:03.502Z,8.93
2022-08-09T03:54:38.680Z,9.30
2022-08-09T03:57:12.432Z,9.83
2022-08-09T03:59:53.494Z,10.00
2022-08-09T04:02:30.508Z,10.27
2022-08-09T04:04:59.294Z,11.00
2022-08-09T04:07:47.642Z,9.13
2022-08-09T04:10:20.441Z,9.67
2022-08-09T04:12:51.630Z,9.73
2022-08-09T04:15:38.914Z,10.20
2022-08-09T04:18:09.070Z,9.90
2022-08-09T04:20:43.685Z,9.40
2022-08-09T04:23:17.280Z,9.60
2022-08-09T04:25:49.876Z,9.30
2022-08-09T04:28:33.327Z,10.00
2022-08-09T04:31:05.906Z,9.53
2022-08-09T04:33:52.106Z,9.97
2022-08-09T04:36:21.306Z,9.50
2022-08-09T04:38:50.107Z,9.20
2022-08-09T04:41:16.783Z,9.60
2022-08-09T04:43:53.959Z,9.67
2022-08-09T04:46:57.763Z,9.63
2022-08-09T04:49:17.418Z,9.60
2022-08-09T04:51:57.719Z,8.97
2022-08-09T04:54:25.155Z,9.00
2022-08-09T04:56:51.900Z,8.33
2022-08-09T04:59:21.100Z,9.50
2022-08-09T05:01:49.407Z,9.10
2022-08-09T05:04:16.160Z,7.80
2022-08-09T05:06:44.241Z,8.50
2022-08-09T05:09:11.362Z,7.20
2022-08-09T05:11:39.704Z,8.00
2022-08-09T05:14:10.245Z,7.70
2022-08-09T05:16:43.812Z,7.67
2022-08-09T05:19:31.897Z,7.10
2022-08-09T05:22:33.246Z,6.93
2022-08-09T05:25:01.117Z,7.60
2022-08-09T05:27:31.052Z,8.00
2022-08-09T05:29:57.931Z,7.63
2022-08-09T05:32:26.166Z,7.40
2022-08-09T05:34:57.225Z,7.87
2022-08-09T05:37:26.156Z,8.07
2022-08-09T05:39:53.366Z,7.37
2022-08-09T05:42:21.391Z,6.93
2022-08-09T05:44:52.277Z,6.40
2022-08-09T05:47:21.734Z,7.50
2022-08-09T05:50:23.870Z,6.93
2022-08-09T05:52:38.761Z,7.07
2022-08-09T05:55:07.240Z,7.00
2022-08-09T05:57:56.046Z,6.80
2022-08-09T06:00:25.738Z,6.23
2022-08-09T06:02:54.329Z,5.50
2022-08-09T06:05:31.217Z,5.93
2022-08-09T06:08:10.944Z,5.77
2022-08-09T06:10:38.594Z,5.90
2022-08-09T06:13:18.286Z,5.27
2022-08-09T06:15:46.871Z,6.37
2022-08-09T06:18:15.779Z,5.50
2022-08-09T06:20:54.303Z,5.50
2022-08-09T06:23:24.420Z,5.60
2022-08-09T06:26:11.221Z,4.93
2022-08-09T06:28:38.454Z,4.77
2022-08-09T06:31:05.610Z,5.10
2022-08-09T06:33:40.649Z,4.83
2022-08-09T06:36:09.331Z,4.93
2022-08-09T06:38:37.757Z,4.80
2022-08-09T06:41:08.615Z,4.73
2022-08-09T06:43:45.492Z,4.60
2022-08-09T06:46:39.192Z,4.23
2022-08-09T06:49:00.321Z,4.30
2022-08-09T06:51:27.939Z,4.10
2022-08-09T06:53:55.357Z,4.87
2022-08-09T06:56:30.702Z,4.30
2022-08-09T07:00:54.026Z,3.80
2022-08-09T07:01:58.204Z,4.43
2022-08-09T07:04:30.866Z,4.23
2022-08-09T07:07:00.529Z,3.90
2022-08-09T07:09:56.158Z,4.20
2022-08-09T07:12:17.838Z,3.70
2022-08-09T07:14:51.330Z,4.03
2022-08-09T07:17:19.638Z,3.50
2022-08-09T07:19:48.232Z,3.90
2022-08-09T07:22:18.660Z,3.63
2022-08-09T07:25:01.213Z,3.70
2022-08-09T07:27:34.246Z,3.10
2022-08-09T07:30:09.701Z,3.67
2022-08-09T07:32:36.779Z,3.63
2022-08-09T07:35:11.341Z,3.87
2022-08-09T07:37:43.650Z,3.93
2022-08-09T07:40:17.138Z,3.60
2022-08-09T07:42:50.148Z,3.60
2022-08-09T07:45:38.397Z,3.53
2022-08-09T07:48:04.704Z,4.00
2022-08-09T07:50:34.815Z,3.90
2022-08-09T07:53:04.484Z,3.40
2022-08-09T07:55:41.717Z,3.83
2022-08-09T07:58:19.007Z,3.60
2022-08-09T08:00:58.682Z,3.60
2022-08-09T08:03:33.119Z,3.80
2022-08-09T08:06:03.829Z,3.63
2022-08-09T08:08:59.970Z,3.63
2022-08-09T08:12:10.416Z,3.60
2022-08-09T08:14:06.455Z,3.40
2022-08-09T08:16:33.339Z,3.50
2022-08-09T08:19:03.003Z,3.80
2022-08-09T08:21:30.378Z,3.50
2022-08-09T08:23:57.143Z,3.73
2022-08-09T08:26:55.066Z,3.90
2022-08-09T08:29:15.002Z,3.83
2022-08-09T08:32:04.331Z,4.20
2022-08-09T08:34:34.388Z,3.90
2022-08-09T08:37:02.062Z,3.50
2022-08-09T08:39:28.848Z,3.93
2022-08-09T08:41:58.897Z,3.67
2022-08-09T08:44:28.735Z,3.47
2022-08-09T08:47:02.296Z,4.43
2022-08-09T08:49:38.696Z,3.60
2022-08-09T08:52:50.442Z,3.30
2022-08-09T08:55:03.888Z,3.47
2022-08-09T08:57:34.846Z,3.80
2022-08-09T09:00:02.737Z,3.30
2022-08-09T09:02:35.391Z,3.57
2022-08-09T09:05:06.107Z,2.70
2022-08-09T09:07:37.099Z,3.20
2022-08-09T09:10:10.154Z,2.90
2022-08-09T09:12:37.076Z,3.10
2022-08-09T09:15:06.286Z,2.80
2022-08-09T09:17:49.295Z,2.97
2022-08-09T09:20:21.286Z,2.80
2022-08-09T09:22:55.732Z,3.23
2022-08-09T09:26:02.078Z,2.70
2022-08-09T09:29:02.052Z,2.93
2022-08-09T09:32:01.694Z,3.10
2022-08-09T09:34:14.438Z,3.27
2022-08-09T09:36:46.727Z,2.63
2022-08-09T09:39:25.567Z,2.90
2022-08-09T09:42:11.980Z,3.07
2022-08-09T09:44:40.951Z,3.40
2022-08-09T09:47:11.685Z,3.10
2022-08-09T09:50:06.918Z,2.77
2022-08-09T09:52:37.270Z,2.73
2022-08-09T09:55:16.765Z,2.60
2022-08-09T09:58:03.426Z,2.60
2022-08-09T10:00:55.018Z,2.33
2022-08-09T10:04:01.475Z,2.07
2022-08-09T10:06:38.833Z,2.20
2022-08-09T10:09:21.614Z,2.13
2022-08-09T10:12:07.624Z,2.30
2022-08-09T10:14:39.802Z,2.20
2022-08-09T10:17:17.624Z,2.27
2022-08-09T10:20:02.549Z,2.23
2022-08-09T10:22:33.382Z,2.37
2022-08-09T10:25:06.893Z,1.80
2022-08-09T10:27:38.543Z,2.17
2022-08-09T10:32:00.082Z,1.73
2022-08-09T10:32:58.939Z,2.00
2022-08-09T10:35:26.377Z,2.10
2022-08-09T10:37:53.092Z,2.37
2022-08-09T10:40:34.945Z,2.10
2022-08-09T10:43:04.448Z,2.30
2022-08-09T10:45:35.318Z,2.30
2022-08-09T10:48:16.477Z,1.90
2022-08-09T10:51:14.507Z,2.30
2022-08-09T10:54:04.651Z,2.00
2022-08-09T10:56:36.039Z,1.70
2022-08-09T10:59:23.215Z,2.00
2022-08-09T11:03:15.187Z,2.23
2022-08-09T11:04:55.893Z,2.23
2022-08-09T11:07:27.051Z,2.00
2022-08-09T11:10:13.774Z,2.07
2022-08-09T11:12:44.996Z,1.70
2022-08-09T11:15:23.932Z,2.20
2022-08-09T11:17:53.278Z,2.40
2022-08-09T11:20:55.998Z,1.97
2022-08-09T11:23:30.153Z,2.13
2022-08-09T11:25:57.055Z,1.53
2022-08-09T11:28:33.812Z,2.30
2022-08-09T11:31:33.946Z,1.93
2022-08-09T11:34:04.239Z,2.03
2022-08-09T11:36:35.924Z,2.07
2022-08-09T11:39:04.015Z,2.70
2022-08-09T11:41:38.586Z,1.50
2022-08-09T11:44:06.884Z,1.77
2022-08-09T11:46:53.338Z,1.83
2022-08-09T11:50:53.826Z,2.03
2022-08-09T11:53:21.058Z,2.37
2022-08-09T11:55:52.333Z,1.93
2022-08-09T11:58:30.083Z,2.03
2022-08-09T12:01:08.872Z,1.97
2022-08-09T12:03:55.590Z,2.30
2022-08-09T12:06:32.842Z,2.10
2022-08-09T12:09:15.080Z,2.23
2022-08-09T12:12:02.038Z,1.97
2022-08-09T12:14:36.873Z,2.00
2022-08-09T12:17:33.957Z,2.00
2022-08-09T12:19:59.566Z,2.07
2022-08-09T12:22:26.574Z,2.27
2022-08-09T12:25:10.283Z,1.97
2022-08-09T12:29:13.568Z,2.13
2022-08-09T12:30:36.472Z,2.33
2022-08-09T12:33:06.110Z,2.60
2022-08-09T12:35:40.135Z,2.53
2022-08-09T12:38:37.425Z,2.10
2022-08-09T12:41:05.438Z,2.40
2022-08-09T12:44:04.891Z,2.10
2022-08-09T12:46:20.652Z,2.03
2022-08-09T12:48:47.318Z,2.00
2022-08-09T12:51:13.981Z,2.53
2022-08-09T12:54:02.171Z,2.30
2022-08-09T12:56:43.664Z,2.10
2022-08-09T12:59:16.862Z,1.97
2022-08-09T13:01:48.669Z,1.93
2022-08-09T13:04:37.249Z,2.30
2022-08-09T13:07:19.595Z,2.00
2022-08-09T13:09:55.669Z,2.37
2022-08-09T13:12:28.031Z,2.17
2022-08-09T13:15:04.266Z,2.40
2022-08-09T13:18:03.229Z,2.13
2022-08-09T13:20:37.410Z,2.23
2022-08-09T13:24:17.626Z,3.00
2022-08-09T13:26:03.835Z,2.17
2022-08-09T13:28:35.621Z,2.53
2022-08-09T13:32:15.194Z,2.50
2022-08-09T13:33:54.474Z,2.20
2022-08-09T13:36:38.384Z,2.00
2022-08-09T13:41:18.988Z,2.30
2022-08-09T13:42:03.736Z,2.47
2022-08-09T13:44:30.857Z,1.73
2022-08-09T13:47:16.320Z,1.80
2022-08-09T13:49:58.071Z,2.03
2022-08-09T13:52:31.243Z,2.33
2022-08-09T13:55:04.729Z,2.00
2022-08-09T13:57:37.017Z,2.30
2022-08-09T14:00:12.145Z,1.97
2022-08-09T14:02:42.491Z,1.93
2022-08-09T14:05:57.137Z,1.57
2022-08-09T14:08:13.339Z,1.90
2022-08-09T14:10:50.166Z,1.73
2022-08-09T14:14:15.971Z,1.97
2022-08-09T14:16:14.124Z,1.70
2022-08-09T14:18:45.109Z,1.70
2022-08-09T14:21:17.404Z,1.83
2022-08-09T14:23:54.591Z,1.63
2022-08-09T14:26:25.452Z,1.93
2022-08-09T14:28:59.018Z,1.70
2022-08-09T14:31:35.779Z,1.73
2022-08-09T14:34:04.305Z,1.90
2022-08-09T14:36:35.314Z,1.83
2022-08-09T14:39:09.457Z,1.90
2022-08-09T14:41:40.235Z,1.73
2022-08-09T14:44:11.203Z,1.90
2022-08-09T14:47:03.230Z,1.70
2022-08-09T14:49:26.216Z,1.40
2022-08-09T14:51:58.332Z,1.67
2022-08-09T14:54:27.756Z,1.70
2022-08-09T14:56:57.715Z,1.57
2022-08-09T14:59:27.203Z,1.70
2022-08-09T15:01:55.177Z,1.60
2022-08-09T15:04:23.567Z,1.80
2022-08-09T15:06:51.433Z,1.80
2022-08-09T15:10:03.641Z,1.90
2022-08-09T15:12:08.023Z,1.83
2022-08-09T15:14:38.472Z,2.33
2022-08-09T15:17:09.278Z,1.90
2022-08-09T15:19:36.699Z,1.80
2022-08-09T15:22:03.711Z,1.50
2022-08-09T15:24:30.481Z,1.40
2022-08-09T15:26:59.792Z,1.77
2022-08-09T15:30:48.579Z,1.73
2022-08-09T15:32:28.662Z,1.57
2022-08-09T15:34:59.899Z,1.90
2022-08-09T15:37:37.181Z,1.50
2022-08-09T15:40:11.768Z,1.70
2022-08-09T15:42:39.324Z,1.53
2022-08-09T15:45:06.913Z,2.00
2022-08-09T15:47:51.925Z,1.93
2022-08-09T15:50:29.207Z,1.40
2022-08-09T15:53:06.951Z,1.77
2022-08-09T15:55:35.183Z,1.73
2022-08-09T15:58:26.827Z,1.60
2022-08-09T16:00:57.309Z,1.93
2022-08-09T16:03:29.492Z,1.70
2022-08-09T16:06:06.334Z,1.57
2022-08-09T16:08:33.422Z,1.87
2022-08-09T16:11:02.002Z,2.07
2022-08-09T16:14:03.903Z,1.80
2022-08-09T16:16:19.209Z,1.80
2022-08-09T16:18:49.235Z,2.47
2022-08-09T16:21:25.158Z,2.33
2022-08-09T16:23:58.793Z,2.07
2022-08-09T16:26:35.385Z,1.93
2022-08-09T16:29:11.068Z,1.63
2022-08-09T16:32:20.546Z,1.67
2022-08-09T16:34:55.325Z,2.10
2022-08-09T16:37:17.831Z,1.87
2022-08-09T16:39:54.493Z,2.00
2022-08-09T16:42:31.449Z,1.90
2022-08-09T16:44:58.115Z,2.20
2022-08-09T16:48:38.160Z,1.90
2022-08-09T16:50:29.779Z,2.20
2022-08-09T16:52:58.823Z,1.83
2022-08-09T16:55:25.769Z,2.40
2022-08-09T16:58:08.889Z,1.97
2022-08-09T17:00:41.914Z,1.83
2022-08-09T17:03:20.960Z,2.20
2022-08-09T17:06:02.745Z,2.10
2022-08-09T17:08:44.044Z,2.00
2022-08-09T17:11:32.997Z,2.30
2022-08-09T17:14:08.517Z,1.83
2022-08-09T17:16:53.797Z,1.87
2022-08-09T17:19:20.854Z,2.13
2022-08-09T17:21:47.792Z,2.00
2022-08-09T17:24:30.262Z,2.00
2022-08-09T17:26:58.326Z,1.50
2022-08-09T17:29:25.405Z,2.07
2022-08-09T17:32:00.195Z,1.40
2022-08-09T17:35:04.040Z,2.10
2022-08-09T17:37:19.563Z,1.57
2022-08-09T17:39:52.763Z,1.67
2022-08-09T17:42:51.363Z,1.87
2022-08-09T17:45:16.189Z,1.87
2022-08-09T17:47:55.869Z,1.63
2022-08-09T17:50:37.167Z,1.60
2022-08-09T17:53:19.294Z,1.97
2022-08-09T17:55:50.263Z,2.13
2022-08-09T17:58:19.041Z,2.30
2022-08-09T18:00:47.972Z,1.90
2022-08-09T18:03:15.018Z,1.83
2022-08-09T18:05:44.793Z,2.60
2022-08-09T18:08:13.396Z,2.70
2022-08-09T18:10:40.242Z,9.97
2022-08-09T18:13:40.129Z,2.20
2022-08-09T18:16:08.666Z,2.43
2022-08-09T18:18:36.209Z,2.40
2022-08-09T18:21:23.118Z,2.00
2022-08-09T18:24:11.679Z,1.97
2022-08-09T18:26:46.582Z,2.27
2022-08-09T18:30:42.770Z,2.07
2022-08-09T18:32:02.997Z,2.00
2022-08-09T18:34:31.586Z,2.00
2022-08-09T18:36:58.573Z,1.67
2022-08-09T18:39:32.288Z,1.80
2022-08-09T18:42:01.146Z,2.00
2022-08-09T18:44:27.948Z,1.90
2022-08-09T18:47:08.073Z,1.97
2022-08-09T18:49:43.437Z,1.70
2022-08-09T18:52:14.115Z,1.93
2022-08-09T18:54:42.224Z,2.30
2022-08-09T18:57:19.865Z,2.00
2022-08-09T18:59:52.007Z,1.60
2022-08-09T19:02:30.536Z,1.70
2022-08-09T19:05:03.342Z,1.70
2022-08-09T19:07:31.896Z,2.53
2022-08-09T19:10:14.368Z,2.30
2022-08-09T19:12:45.669Z,2.20
2022-08-09T19:15:18.329Z,2.40
2022-08-09T19:17:54.887Z,2.10
2022-08-09T19:20:25.591Z,2.10
2022-08-09T19:22:54.388Z,2.57
2022-08-09T19:25:42.591Z,2.20
2022-08-09T19:28:08.898Z,2.33
2022-08-09T19:30:44.453Z,3.00
2022-08-09T19:33:18.970Z,2.70
2022-08-09T19:35:57.388Z,2.90
2022-08-09T19:38:25.743Z,2.33
2022-08-09T19:40:53.910Z,2.80
2022-08-09T19:44:00.772Z,2.67
2022-08-09T19:46:14.770Z,2.80
2022-08-09T19:49:00.592Z,2.90
2022-08-09T19:51:31.091Z,3.33
2022-08-09T19:54:01.771Z,3.97
2022-08-09T19:56:29.375Z,3.13
2022-08-09T19:59:40.477Z,2.67
2022-08-09T20:01:53.061Z,2.60
2022-08-09T20:04:37.588Z,2.83
2022-08-09T20:07:20.999Z,2.20
2022-08-09T20:09:48.880Z,2.30
2022-08-09T20:12:31.662Z,2.40
2022-08-09T20:15:04.704Z,2.53
2022-08-09T20:17:54.668Z,2.50
2022-08-09T20:20:22.008Z,2.40
2022-08-09T20:22:48.913Z,2.10
2022-08-09T20:25:22.870Z,2.40
2022-08-09T20:27:49.798Z,2.60
2022-08-09T20:30:18.029Z,2.40
2022-08-09T20:32:52.051Z,2.83
2022-08-09T20:35:19.627Z,3.67
2022-08-09T20:38:21.172Z,3.43
2022-08-09T20:40:34.087Z,3.50
2022-08-09T20:43:18.993Z,3.03
2022-08-09T20:45:59.896Z,3.30
2022-08-09T20:48:30.957Z,3.17
2022-08-09T20:50:58.627Z,3.00
2022-08-09T20:53:36.499Z,2.70
2022-08-09T20:56:08.985Z,2.33
2022-08-09T20:58:36.299Z,2.40
2022-08-09T21:01:32.933Z,2.37
2022-08-09T21:04:07.952Z,2.33
2022-08-09T21:06:42.802Z,2.57
2022-08-09T21:09:13.973Z,2.93
2022-08-09T21:14:31.059Z,2.93
2022-08-09T21:16:59.478Z,2.57
2022-08-09T21:20:18.156Z,3.50
2022-08-09T21:22:36.333Z,2.90
2022-08-09T21:25:20.836Z,2.70
2022-08-09T21:27:50.928Z,2.60
2022-08-09T21:30:19.661Z,2.87
2022-08-09T21:32:49.318Z,3.40
2022-08-09T21:35:16.743Z,3.03
2022-08-09T21:37:56.886Z,2.67
2022-08-09T21:40:30.137Z,3.23
2022-08-09T21:43:01.417Z,2.87
2022-08-09T21:45:28.340Z,3.27
2022-08-09T21:47:55.660Z,3.27
2022-08-09T21:50:35.814Z,3.00
2022-08-09T21:53:06.794Z,3.47
2022-08-09T21:55:50.627Z,3.03
2022-08-09T21:58:17.422Z,3.70
2022-08-09T22:00:44.160Z,2.90
2022-08-09T22:03:25.255Z,3.13
2022-08-09T22:05:52.854Z,3.30
2022-08-09T22:08:21.449Z,4.20
2022-08-09T22:11:49.742Z,3.77
2022-08-09T22:13:38.495Z,3.10
2022-08-09T22:16:09.491Z,3.27
2022-08-09T22:18:37.701Z,3.13
2022-08-09T22:21:09.694Z,3.70
2022-08-09T22:24:01.229Z,3.90
2022-08-09T22:26:35.192Z,3.53
2022-08-09T22:29:07.561Z,2.90
2022-08-09T22:31:37.118Z,2.93
2022-08-09T22:34:09.819Z,3.43
2022-08-09T22:36:46.066Z,3.13
2022-08-09T22:39:46.608Z,3.43
2022-08-09T22:42:01.859Z,3.40
2022-08-09T22:44:32.679Z,3.37
2022-08-09T22:48:18.325Z,3.70
2022-08-09T22:49:46.137Z,4.10
2022-08-09T22:52:12.880Z,3.67
2022-08-09T22:54:42.491Z,3.80
2022-08-09T22:57:13.725Z,3.80
2022-08-09T22:59:57.765Z,3.40
2022-08-09T23:02:25.919Z,3.90
2022-08-09T23:04:55.302Z,3.70
2022-08-09T23:08:21.246Z,3.77
2022-08-09T23:10:30.891Z,3.30
2022-08-09T23:12:58.070Z,3.30
2022-08-09T23:15:24.823Z,3.00
2022-08-09T23:17:51.889Z,3.60
2022-08-09T23:20:18.623Z,3.57
2022-08-09T23:22:45.358Z,3.57
2022-08-09T23:25:12.093Z,3.43
2022-08-09T23:28:14.163Z,3.63
2022-08-09T23:30:25.514Z,4.10
2022-08-09T23:32:52.751Z,3.90
2022-08-09T23:35:19.395Z,3.80
2022-08-09T23:37:46.042Z,3.40
2022-08-09T23:40:13.149Z,3.67
2022-08-09T23:42:40.637Z,3.63
2022-08-09T23:45:08.860Z,4.50
2022-08-09T23:47:36.122Z,3.70
2022-08-09T23:50:03.403Z,3.60
2022-08-09T23:52:30.071Z,3.67
2022-08-09T23:54:57.655Z,3.23
2022-08-09T23:57:24.322Z,4.07
